Time;durP1;ratioP1;P1;durP2;ratioP2;P2;SDS_P1;SDS_P2;PMS_P1;PMS_P2;Temp;Humidity;BMP_temperature;BMP_pressure;BME280_temperature;BME280_humidity;BME280_pressure;Samples;Min_cycle;Max_cycle;Signal;HPM_P1;HPM_P2
2023/10/15 00:00:38;;;;;;;9.25;2.83;;;;;;;9.84;69.88;98811.34;4977195;28;20116;-82
2023/10/15 00:03:04;;;;;;;14.02;2.67;;;;;;;9.86;69.47;98817.25;5027392;28;20017;-81
2023/10/15 00:05:29;;;;;;;17.75;3.88;;;;;;;9.83;69.78;98823.06;5009352;28;20469;-81
2023/10/15 00:07:57;;;;;;;11.32;2.15;;;;;;;9.81;70.13;98825.97;4985419;28;20496;-82
2023/10/15 00:10:27;;;;;;;8.55;2.53;;;;;;;9.74;70.29;98816.53;5012388;28;20044;-82
2023/10/15 00:12:54;;;;;;;9.95;2.65;;;;;;;9.87;69.36;98828.72;5012068;28;20910;-82
2023/10/15 00:15:23;;;;;;;11.90;3.10;;;;;;;9.66;69.34;98825.75;5011434;28;20064;-81
2023/10/15 00:17:53;;;;;;;7.78;2.42;;;;;;;9.63;69.61;98825.44;5027508;28;20025;-81
2023/10/15 00:20:20;;;;;;;12.07;2.55;;;;;;;9.68;70.26;98841.47;5009850;28;20045;-82
2023/10/15 00:22:50;;;;;;;8.57;1.98;;;;;;;9.69;69.87;98830.59;5030870;28;20025;-81
2023/10/15 00:25:20;;;;;;;13.07;3.85;;;;;;;9.73;69.48;98829.06;5011322;28;20037;-81
2023/10/15 00:27:56;;;;;;;16.30;3.22;;;;;;;9.75;69.47;98826.94;5029140;28;20038;-81
2023/10/15 00:30:22;;;;;;;;;;;;;;;9.74;69.88;98830.66;5027858;28;20021;-81
2023/10/15 00:32:49;;;;;;;11.23;2.70;;;;;;;9.51;69.84;98827.34;5009029;28;19963;-81
2023/10/15 00:35:25;;;;;;;12.30;2.80;;;;;;;9.64;69.59;98830.50;4994011;28;20116;-81
2023/10/15 00:37:57;;;;;;;12.85;2.45;;;;;;;9.55;69.72;98826.63;5011656;28;20025;-81
2023/10/15 00:40:25;;;;;;;14.43;3.00;;;;;;;9.51;69.66;98825.50;5011690;28;20088;-81
2023/10/15 00:42:51;;;;;;;7.53;2.20;;;;;;;9.59;69.17;98816.28;5031382;28;20400;-82
2023/10/15 00:45:18;;;;;;;11.43;2.55;;;;;;;9.60;69.23;98821.38;4983016;28;20095;-81
2023/10/15 00:48:07;;;;;;;13.45;3.25;;;;;;;9.47;69.95;98827.03;5025115;28;20068;-81
2023/10/15 00:50:41;;;;;;;7.90;2.58;;;;;;;9.54;69.75;98814.38;5026963;28;20485;-81
2023/10/15 00:53:21;;;;;;;8.23;2.92;;;;;;;9.49;69.49;98816.94;5009468;28;20556;-81
2023/10/15 00:56:03;;;;;;;10.90;2.60;;;;;;;9.41;70.31;98822.69;5007649;28;20025;-81
2023/10/15 00:58:53;;;;;;;18.33;3.97;;;;;;;9.50;70.12;98802.56;5007649;28;20060;-81
2023/10/15 01:01:23;;;;;;;8.68;2.65;;;;;;;9.57;69.17;98807.72;5022801;28;20059;-81
2023/10/15 01:03:56;;;;;;;11.25;2.60;;;;;;;9.49;70.19;98806.28;5007212;28;20041;-82
2023/10/15 01:09:09;;;;;;;8.80;2.35;;;;;;;9.45;70.27;98810.50;5007558;28;20037;-81
2023/10/15 01:11:51;;;;;;;14.27;2.88;;;;;;;9.54;69.89;98809.03;5005743;28;20029;-81
2023/10/15 01:14:27;;;;;;;11.50;3.55;;;;;;;9.49;69.43;98790.31;5024543;28;20112;-81
2023/10/15 01:16:52;;;;;;;;;;;;;;;9.48;69.58;98802.00;5024830;28;20079;-81
2023/10/15 01:19:20;;;;;;;13.88;3.00;;;;;;;9.33;69.78;98806.25;5006307;28;19917;-81
2023/10/15 01:22:10;;;;;;;17.88;2.85;;;;;;;9.34;70.29;98800.72;5006589;28;20048;-81
2023/10/15 01:24:36;;;;;;;10.00;2.88;;;;;;;9.46;69.97;98796.09;5009736;28;20042;-81
2023/10/15 01:29:35;;;;;;;13.30;2.60;;;;;;;9.26;70.63;98787.78;5006257;28;20026;-81
2023/10/15 01:32:03;;;;;;;7.07;2.38;;;;;;;9.31;70.31;98779.88;5020019;28;20037;-81
2023/10/15 01:34:34;;;;;;;11.52;3.10;;;;;;;9.24;70.24;98797.06;5003939;28;20184;-81
2023/10/15 01:36:59;;;;;;;9.57;2.70;;;;;;;9.31;70.06;98787.06;5005256;28;20044;-81
2023/10/15 01:39:38;;;;;;;9.65;3.50;;;;;;;9.44;70.09;98786.72;5001235;28;20041;-81
2023/10/15 01:42:06;;;;;;;10.13;2.63;;;;;;;9.40;70.29;98798.94;5023242;28;20434;-81
2023/10/15 01:44:47;;;;;;;20.17;4.78;;;;;;;9.34;69.69;98800.72;5021550;28;20040;-81
2023/10/15 01:47:13;;;;;;;9.50;2.90;;;;;;;9.24;70.02;98787.22;5021060;28;20036;-81
2023/10/15 01:49:38;;;;;;;9.73;2.65;;;;;;;9.30;69.75;98798.78;5024545;28;20029;-81
2023/10/15 01:52:10;;;;;;;8.95;2.55;;;;;;;9.28;70.29;98790.22;5008002;28;20037;-81
2023/10/15 01:54:45;;;;;;;9.48;2.45;;;;;;;9.26;70.11;98795.75;4990752;28;20029;-81
2023/10/15 01:57:15;;;;;;;9.13;2.45;;;;;;;9.16;70.94;98794.78;5027923;28;20041;-81
2023/10/15 01:59:47;;;;;;;13.48;2.95;;;;;;;9.16;70.24;98790.28;5022633;28;20499;-81
2023/10/15 02:02:23;;;;;;;12.80;2.30;;;;;;;9.13;70.59;98789.97;5002987;28;20021;-81
2023/10/15 02:04:50;;;;;;;10.00;2.38;;;;;;;9.19;70.26;98794.31;4998021;28;20116;-81
2023/10/15 02:07:22;;;;;;;12.50;2.92;;;;;;;9.18;70.32;98793.50;5003774;28;20033;-81
2023/10/15 02:09:47;;;;;;;9.20;3.10;;;;;;;8.91;70.17;98782.66;5006607;28;20362;-81
2023/10/15 02:12:14;;;;;;;10.20;3.75;;;;;;;9.11;70.07;98778.75;5004134;28;20067;-81
2023/10/15 02:14:44;;;;;;;9.27;2.13;;;;;;;9.15;70.20;98783.34;5003567;28;20083;-81
2023/10/15 02:17:13;;;;;;;8.98;3.47;;;;;;;8.99;70.26;98774.28;4988266;28;20041;-81
2023/10/15 02:19:43;;;;;;;14.18;2.92;;;;;;;8.98;70.97;98774.50;5022634;28;20033;-81
2023/10/15 02:22:12;;;;;;;8.88;2.22;;;;;;;8.93;70.52;98780.56;5007327;28;20037;-81
2023/10/15 02:24:56;;;;;;;11.23;2.83;;;;;;;8.95;70.38;98773.13;5021291;28;20023;-81
2023/10/15 02:27:25;;;;;;;11.93;4.57;;;;;;;9.05;70.59;98770.66;5020050;28;20021;-81
2023/10/15 02:29:54;;;;;;;9.77;2.83;;;;;;;9.03;70.71;98774.59;5022296;28;20120;-81
2023/10/15 02:34:52;;;;;;;7.57;3.20;;;;;;;9.00;70.87;98785.72;5007610;28;20042;-81
2023/10/15 02:37:28;;;;;;;11.43;2.80;;;;;;;8.87;71.46;98778.03;5006605;28;20033;-81
2023/10/15 02:39:58;;;;;;;;;;;;;;;9.04;70.58;98778.91;5024242;28;20033;-81
2023/10/15 02:42:36;;;;;;;7.13;2.90;;;;;;;8.93;70.91;98777.88;4999721;28;19956;-81
2023/10/15 02:45:06;;;;;;;11.20;2.78;;;;;;;8.84;70.68;98782.00;5010713;28;20029;-81
2023/10/15 02:47:31;;;;;;;12.40;3.70;;;;;;;8.90;70.59;98759.75;5023504;28;20025;-81
2023/10/15 02:50:03;;;;;;;10.15;2.50;;;;;;;8.98;70.39;98778.00;5022397;28;20167;-81
2023/10/15 02:52:35;;;;;;;13.43;3.13;;;;;;;8.86;70.52;98763.13;5021226;28;20415;-81
2023/10/15 02:55:08;;;;;;;8.55;3.58;;;;;;;8.98;70.81;98772.66;5022283;28;21327;-81
2023/10/15 02:57:39;;;;;;;12.02;3.05;;;;;;;8.92;70.91;98775.47;5021740;28;20445;-81
2023/10/15 03:00:28;;;;;;;12.10;2.70;;;;;;;8.76;70.59;98771.72;5021499;28;20059;-81
2023/10/15 03:02:56;;;;;;;11.65;3.08;;;;;;;8.75;71.17;98777.28;5006967;28;20061;-81
2023/10/15 03:05:30;;;;;;;11.90;2.80;;;;;;;8.93;70.43;98782.44;4988923;28;20040;-81
2023/10/15 03:07:59;;;;;;;15.20;4.15;;;;;;;8.84;69.82;98776.69;5004988;28;20040;-81
2023/10/15 03:10:30;;;;;;;10.63;2.67;;;;;;;8.86;70.60;98782.56;5019754;28;20060;-81
2023/10/15 03:12:59;;;;;;;9.30;2.83;;;;;;;8.80;70.23;98788.03;5003109;28;20978;-81
2023/10/15 03:15:25;;;;;;;8.00;2.83;;;;;;;8.81;70.24;98797.63;5021321;28;21417;-81
2023/10/15 03:17:50;;;;;;;8.55;2.28;;;;;;;8.81;70.64;98792.31;5022068;28;20040;-81
2023/10/15 03:22:42;;;;;;;11.27;3.60;;;;;;;8.80;69.70;98801.34;5003390;28;20060;-81
2023/10/15 03:25:14;;;;;;;14.43;2.67;;;;;;;8.56;70.22;98800.59;5020458;28;20108;-82
2023/10/15 03:27:40;;;;;;;9.63;2.63;;;;;;;8.74;70.64;98796.94;5005172;28;20045;-81
2023/10/15 03:30:09;;;;;;;10.43;2.17;;;;;;;8.80;70.18;98807.47;4988734;28;20030;-82
2023/10/15 03:32:40;;;;;;;10.48;2.83;;;;;;;8.75;69.94;98798.59;4972276;28;20886;-82
2023/10/15 03:35:08;;;;;;;11.48;2.80;;;;;;;8.66;70.51;98800.81;5000649;28;20469;-82
2023/10/15 03:37:38;;;;;;;6.28;2.58;;;;;;;8.78;71.03;98819.41;5005110;28;20476;-81
2023/10/15 03:40:12;;;;;;;11.15;3.45;;;;;;;8.85;70.39;98817.38;5002182;28;20095;-82
2023/10/15 03:42:40;;;;;;;15.10;2.95;;;;;;;8.83;70.95;98814.16;5004351;28;20033;-82
2023/10/15 03:45:15;;;;;;;9.32;2.70;;;;;;;8.84;71.01;98807.81;4986385;28;20932;-81
2023/10/15 03:47:41;;;;;;;7.20;2.50;;;;;;;8.68;70.79;98803.22;5003356;28;20523;-81
2023/10/15 03:50:09;;;;;;;9.02;3.03;;;;;;;8.68;71.11;98809.38;5002383;28;20114;-82
2023/10/15 03:52:35;;;;;;;8.40;2.95;;;;;;;8.65;71.56;98823.13;5008178;28;20633;-82
2023/10/15 03:55:00;;;;;;;7.45;2.30;;;;;;;8.68;71.53;98820.00;5020706;28;20037;-81
2023/10/15 03:57:34;;;;;;;11.02;2.25;;;;;;;8.74;70.93;98813.72;4987591;28;20048;-82
2023/10/15 04:00:00;;;;;;;9.43;2.55;;;;;;;8.86;70.75;98813.69;5005066;28;20405;-81
2023/10/15 04:04:56;;;;;;;12.40;2.95;;;;;;;8.56;71.56;98803.25;5019543;28;20040;-82
2023/10/15 04:07:23;;;;;;;13.27;2.58;;;;;;;8.87;70.82;98821.44;5019834;28;20072;-80
2023/10/15 04:09:50;;;;;;;6.80;3.42;;;;;;;8.75;71.61;98804.72;5003046;28;20026;-81
2023/10/15 04:12:18;;;;;;;10.35;3.05;;;;;;;8.75;71.54;98820.69;5004412;28;20068;-81
2023/10/15 04:14:44;;;;;;;11.82;2.60;;;;;;;8.92;70.72;98804.75;5002323;28;20037;-81
2023/10/15 04:17:10;;;;;;;18.63;3.22;;;;;;;8.84;70.76;98805.97;5024057;28;20037;-81
2023/10/15 04:19:36;;;;;;;22.67;3.83;;;;;;;8.96;70.60;98816.53;5025344;28;20720;-81
2023/10/15 04:22:36;;;;;;;7.35;2.72;;;;;;;9.02;70.73;98827.03;4990412;28;20033;-81
2023/10/15 04:24:53;;;;;;;6.00;2.70;;;;;;;9.11;70.22;98818.69;5022348;28;20041;-81
2023/10/15 04:27:22;;;;;;;11.70;2.95;;;;;;;8.89;71.51;98800.72;5023368;28;20071;-81
2023/10/15 04:29:52;;;;;;;11.32;3.33;;;;;;;9.08;70.73;98806.66;5008034;28;20032;-81
2023/10/15 04:34:53;;;;;;;10.43;3.05;;;;;;;8.95;71.22;98804.28;5025125;28;20481;-81
2023/10/15 04:37:20;;;;;;;10.57;3.10;;;;;;;8.94;71.70;98811.47;5006412;28;20060;-81
2023/10/15 04:39:54;;;;;;;9.40;3.33;;;;;;;8.85;71.25;98810.22;5007137;28;20420;-81
2023/10/15 04:42:21;;;;;;;13.85;4.82;;;;;;;8.92;71.15;98800.25;5005967;28;20036;-82
2023/10/15 04:44:50;;;;;;;12.05;2.75;;;;;;;8.96;70.59;98801.38;5006197;28;20037;-81
2023/10/15 04:47:20;;;;;;;5.95;3.03;;;;;;;9.02;71.02;98811.06;4992482;28;20037;-81
2023/10/15 04:49:47;;;;;;;10.43;2.80;;;;;;;8.94;71.47;98806.13;5003770;28;20800;-82
2023/10/15 04:52:14;;;;;;;11.57;4.07;;;;;;;9.17;71.11;98801.75;5007506;28;20369;-82
2023/10/15 04:54:40;;;;;;;8.75;3.28;;;;;;;9.10;71.12;98811.72;5025895;28;20026;-81
2023/10/15 04:57:05;;;;;;;14.50;4.07;;;;;;;8.99;71.27;98814.22;5006212;28;20083;-82
2023/10/15 04:59:30;;;;;;;8.70;3.35;;;;;;;9.02;72.09;98810.28;5006709;28;20029;-82
2023/10/15 05:01:56;;;;;;;8.32;3.03;;;;;;;9.01;71.61;98809.47;4972822;28;20041;-81
2023/10/15 05:04:22;;;;;;;5.50;2.80;;;;;;;9.11;71.85;98806.16;4990641;28;20044;-81
2023/10/15 05:06:48;;;;;;;10.23;2.72;;;;;;;9.01;71.67;98798.81;4995183;28;20045;-81
2023/10/15 05:09:21;;;;;;;6.70;3.50;;;;;;;9.23;71.77;98803.44;5029755;28;20108;-82
2023/10/15 05:11:49;;;;;;;12.50;3.55;;;;;;;8.98;72.20;98783.31;4993694;28;20038;-82
2023/10/15 05:14:14;;;;;;;4.75;2.97;;;;;;;8.88;73.33;98787.66;4997258;28;20030;-82
2023/10/15 05:16:40;;;;;;;13.85;3.80;;;;;;;9.03;72.75;98788.72;4984167;28;20037;-81
2023/10/15 05:19:06;;;;;;;7.07;3.35;;;;;;;9.00;71.90;98781.22;4995627;28;20319;-82
2023/10/15 05:21:32;;;;;;;7.68;3.10;;;;;;;9.15;72.17;98787.88;4978376;28;20033;-81
2023/10/15 05:23:57;;;;;;;7.40;2.88;;;;;;;9.06;72.73;98769.59;5012008;28;20037;-82
2023/10/15 05:26:23;;;;;;;10.90;3.33;;;;;;;9.07;72.64;98779.22;4980161;28;20030;-82
2023/10/15 05:28:48;;;;;;;12.57;3.67;;;;;;;8.85;73.08;98786.28;4992105;28;20056;-81
2023/10/15 05:31:13;;;;;;;9.73;3.42;;;;;;;9.05;73.69;98783.97;4980418;28;20033;-82
2023/10/15 05:33:39;;;;;;;6.10;3.38;;;;;;;9.02;73.08;98784.44;5029340;28;20136;-82
2023/10/15 05:36:06;;;;;;;9.80;3.47;;;;;;;9.01;72.79;98779.38;4994499;28;20038;-81
2023/10/15 05:38:31;;;;;;;12.23;4.10;;;;;;;9.16;72.39;98782.28;5013588;28;20025;-81
2023/10/15 05:40:57;;;;;;;7.88;3.72;;;;;;;9.00;73.15;98775.06;5010024;28;20044;-82
2023/10/15 05:43:23;;;;;;;9.05;3.92;;;;;;;8.83;73.02;98782.22;5012622;28;20144;-81
2023/10/15 05:45:48;;;;;;;7.10;3.65;;;;;;;8.76;73.90;98777.06;5011410;28;20029;-82
2023/10/15 05:48:13;;;;;;;11.13;3.70;;;;;;;8.99;73.19;98778.81;5010098;28;20775;-81
2023/10/15 05:50:39;;;;;;;14.30;4.32;;;;;;;8.90;73.39;98780.22;4998257;28;20066;-82
2023/10/15 05:53:06;;;;;;;9.35;4.18;;;;;;;9.05;73.60;98788.47;4992707;28;20103;-82
2023/10/15 05:55:32;;;;;;;9.77;3.63;;;;;;;9.07;73.01;98784.53;5008621;28;20555;-81
2023/10/15 05:57:58;;;;;;;9.10;4.15;;;;;;;9.02;73.18;98787.09;5024172;28;20029;-81
2023/10/15 06:00:26;;;;;;;14.05;4.80;;;;;;;9.10;72.83;98791.25;4991785;28;20038;-82
2023/10/15 06:02:55;;;;;;;9.05;4.43;;;;;;;9.17;72.52;98797.22;5007801;28;20397;-81
2023/10/15 06:05:21;;;;;;;11.63;3.72;;;;;;;9.12;73.25;98793.66;5029819;28;21835;-82
2023/10/15 06:07:47;;;;;;;8.77;4.20;;;;;;;9.04;72.88;98800.19;5011602;28;20029;-81
2023/10/15 06:10:13;;;;;;;11.50;4.50;;;;;;;9.02;72.93;98794.31;5013808;28;20049;-82
2023/10/15 06:12:39;;;;;;;10.98;4.25;;;;;;;8.95;73.53;98793.63;5008513;28;20124;-81
2023/10/15 06:15:06;;;;;;;14.00;4.60;;;;;;;8.82;72.79;98788.63;5008929;28;20053;-81
2023/10/15 06:17:32;;;;;;;12.75;4.53;;;;;;;8.93;73.13;98791.19;5009428;28;20044;-81
2023/10/15 06:19:58;;;;;;;9.18;3.60;;;;;;;9.06;73.29;98801.53;4997880;28;20029;-82
2023/10/15 06:22:25;;;;;;;11.60;5.32;;;;;;;8.95;72.97;98815.72;5015450;28;20040;-81
2023/10/15 06:24:51;;;;;;;11.40;4.85;;;;;;;8.80;73.88;98804.78;5014282;28;20124;-82
2023/10/15 06:27:18;;;;;;;13.80;3.97;;;;;;;8.97;73.47;98808.34;4982357;28;20052;-81
2023/10/15 06:29:43;;;;;;;10.60;4.18;;;;;;;9.05;73.28;98820.44;5024492;28;20025;-81
2023/10/15 06:32:10;;;;;;;11.68;4.07;;;;;;;9.00;73.05;98807.84;5010454;28;20064;-82
2023/10/15 06:34:36;;;;;;;8.80;4.05;;;;;;;8.97;73.45;98805.66;5011265;28;20036;-81
2023/10/15 06:37:01;;;;;;;10.13;4.78;;;;;;;9.01;73.21;98796.16;5025593;28;20029;-81
2023/10/15 06:39:27;;;;;;;12.82;4.65;;;;;;;9.03;73.27;98819.88;5012576;28;20474;-81
2023/10/15 06:41:52;;;;;;;10.65;4.72;;;;;;;8.77;73.93;98799.16;5029343;28;20021;-81
2023/10/15 06:44:19;;;;;;;10.13;3.72;;;;;;;8.90;73.24;98813.00;4993237;28;20022;-81
2023/10/15 06:46:44;;;;;;;9.38;4.60;;;;;;;8.82;73.79;98826.66;5009275;28;20480;-81
2023/10/15 06:49:10;;;;;;;7.68;3.90;;;;;;;8.92;73.46;98818.06;5029517;28;20028;-81
2023/10/15 06:51:35;;;;;;;9.30;5.40;;;;;;;9.02;73.73;98819.06;4992261;28;20566;-81
2023/10/15 06:54:01;;;;;;;10.05;4.57;;;;;;;9.09;72.95;98816.25;4995120;28;20385;-82
2023/10/15 06:56:27;;;;;;;11.40;4.13;;;;;;;9.10;73.15;98831.19;5011222;28;20045;-82
2023/10/15 06:58:52;;;;;;;4.63;3.47;;;;;;;9.12;72.55;98831.75;5029939;28;20048;-81
2023/10/15 07:01:18;;;;;;;8.88;3.90;;;;;;;9.15;72.74;98833.94;5024226;28;20030;-82
2023/10/15 07:03:44;;;;;;;8.35;3.70;;;;;;;8.91;72.89;98829.78;5030576;28;20491;-81
2023/10/15 07:06:09;;;;;;;3.40;2.72;;;;;;;9.08;73.22;98830.63;5008237;28;20040;-81
2023/10/15 07:08:34;;;;;;;5.57;3.50;;;;;;;9.04;73.21;98840.91;4988127;28;20180;-81
2023/10/15 07:11:00;;;;;;;9.52;3.17;;;;;;;9.11;72.92;98834.66;5011504;28;20029;-81
2023/10/15 07:13:26;;;;;;;11.07;4.68;;;;;;;8.95;73.56;98836.22;5011535;28;20044;-81
2023/10/15 07:15:52;;;;;;;7.78;3.70;;;;;;;9.01;73.49;98840.59;5030065;28;20033;-82
2023/10/15 07:18:17;;;;;;;5.50;3.13;;;;;;;9.11;73.51;98839.97;4975412;28;20025;-82
2023/10/15 07:20:43;;;;;;;9.02;3.67;;;;;;;8.95;74.02;98844.22;5008999;28;20031;-82
2023/10/15 07:23:09;;;;;;;5.40;2.35;;;;;;;9.21;72.79;98829.50;5027607;28;20489;-82
2023/10/15 07:25:35;;;;;;;5.45;2.75;;;;;;;9.22;72.66;98845.22;4999099;28;20112;-82
2023/10/15 07:28:01;;;;;;;6.25;2.90;;;;;;;9.22;72.71;98841.78;4993283;28;20176;-82
2023/10/15 07:30:27;;;;;;;11.50;2.97;;;;;;;9.20;72.63;98862.50;5026295;28;20515;-82
2023/10/15 07:32:57;;;;;;;4.55;2.75;;;;;;;9.28;72.68;98852.28;5008109;28;20033;-82
2023/10/15 07:35:25;;;;;;;6.00;3.00;;;;;;;9.31;72.86;98857.13;5011562;28;20172;-82
2023/10/15 07:37:51;;;;;;;6.25;3.00;;;;;;;9.01;74.01;98853.91;5028808;28;20025;-82
2023/10/15 07:40:19;;;;;;;6.10;2.50;;;;;;;9.26;73.25;98858.91;5022931;28;20049;-82
2023/10/15 07:42:49;;;;;;;6.20;2.42;;;;;;;9.14;73.14;98860.78;4997020;28;20033;-82
2023/10/15 07:45:15;;;;;;;6.15;2.40;;;;;;;9.26;72.65;98866.88;4995920;28;20029;-82
2023/10/15 07:47:40;;;;;;;8.88;3.03;;;;;;;9.14;73.19;98871.44;5008204;28;20469;-81
2023/10/15 07:50:13;;;;;;;5.40;2.30;;;;;;;9.15;72.78;98873.06;5005916;28;20029;-81
2023/10/15 07:52:38;;;;;;;6.25;2.60;;;;;;;9.13;73.30;98877.81;5027681;28;20049;-81
2023/10/15 07:55:06;;;;;;;7.45;2.47;;;;;;;8.86;74.41;98866.94;5024849;28;20118;-82
2023/10/15 07:57:31;;;;;;;8.30;2.42;;;;;;;9.26;73.39;98875.66;5008025;28;20444;-81
2023/10/15 07:59:59;;;;;;;5.20;2.47;;;;;;;9.35;73.39;98873.44;5013354;28;20069;-82
2023/10/15 08:02:26;;;;;;;6.22;2.42;;;;;;;9.00;72.77;98887.69;5025427;28;20045;-81
2023/10/15 08:04:55;;;;;;;6.57;2.28;;;;;;;9.29;72.69;98882.38;5007982;28;20160;-82
2023/10/15 08:07:21;;;;;;;7.53;2.38;;;;;;;9.46;72.28;98870.69;5008512;28;20037;-81
2023/10/15 08:09:47;;;;;;;6.00;2.85;;;;;;;9.45;72.33;98884.25;5006338;28;20053;-81
2023/10/15 08:12:12;;;;;;;5.55;2.28;;;;;;;9.49;72.34;98880.06;5027709;28;20060;-81
2023/10/15 08:14:38;;;;;;;2.22;1.77;;;;;;;9.53;72.83;98881.19;5026348;28;20029;-81
2023/10/15 08:17:03;;;;;;;4.63;2.10;;;;;;;9.33;72.76;98886.16;5008053;28;20386;-81
2023/10/15 08:19:29;;;;;;;5.78;2.63;;;;;;;9.36;72.34;98883.84;5006627;28;20038;-81
2023/10/15 08:21:54;;;;;;;2.05;1.85;;;;;;;9.51;72.30;98891.28;4990049;28;20033;-82
2023/10/15 08:24:19;;;;;;;7.03;2.17;;;;;;;9.58;71.98;98891.94;5041358;28;20049;-81
2023/10/15 08:26:45;;;;;;;3.95;2.17;;;;;;;9.32;72.28;98895.22;5009190;28;20048;-81
2023/10/15 08:29:11;;;;;;;6.40;2.25;;;;;;;9.32;72.54;98892.56;4980062;28;20060;-81
2023/10/15 08:31:36;;;;;;;3.78;2.20;;;;;;;9.31;72.88;98894.41;4993446;28;20087;-81
2023/10/15 08:34:02;;;;;;;5.65;1.95;;;;;;;9.32;72.95;98908.53;4993494;28;20033;-81
2023/10/15 08:36:27;;;;;;;3.75;2.20;;;;;;;9.27;73.72;98900.44;5002175;28;20029;-80
2023/10/15 08:38:53;;;;;;;5.78;2.67;;;;;;;9.15;74.53;98902.34;5017937;28;20029;-81
2023/10/15 08:41:21;;;;;;;4.95;2.42;;;;;;;9.65;72.59;98900.59;5005249;28;20057;-83
2023/10/15 08:43:50;;;;;;;4.75;2.67;;;;;;;9.32;73.36;98914.69;5026717;28;20025;-85
2023/10/15 08:46:22;;;;;;;3.83;2.10;;;;;;;9.25;73.96;98915.84;5019639;28;20080;-83
2023/10/15 08:48:49;;;;;;;4.40;2.35;;;;;;;9.60;72.15;98904.00;5002453;28;20105;-83
2023/10/15 08:51:21;;;;;;;3.33;1.70;;;;;;;9.54;73.19;98902.28;5001797;28;20026;-85
2023/10/15 08:53:49;;;;;;;3.05;1.83;;;;;;;9.67;72.48;98898.50;5004875;28;20076;-81
2023/10/15 08:56:20;;;;;;;3.90;1.90;;;;;;;9.77;71.74;98915.47;4998976;28;20473;-81
2023/10/15 08:58:52;;;;;;;2.80;1.85;;;;;;;9.58;72.38;98908.75;5003541;28;20029;-81
2023/10/15 09:01:17;;;;;;;1.70;1.60;;;;;;;9.71;71.83;98910.28;4983164;28;20040;-82
2023/10/15 09:03:43;;;;;;;5.05;1.70;;;;;;;9.82;71.84;98918.22;5007068;28;20113;-82
2023/10/15 09:06:08;;;;;;;5.53;2.58;;;;;;;9.56;72.13;98923.34;5007796;28;20044;-82
2023/10/15 09:08:35;;;;;;;4.72;1.80;;;;;;;9.67;71.81;98925.16;5008463;28;20030;-81
2023/10/15 09:11:01;;;;;;;6.78;1.52;;;;;;;9.89;71.17;98925.25;5009089;28;20124;-82
2023/10/15 09:13:26;;;;;;;2.58;1.77;;;;;;;9.66;71.71;98928.84;5012924;28;20530;-82
2023/10/15 09:15:52;;;;;;;2.88;1.45;;;;;;;9.80;71.07;98932.84;5008988;28;20033;-82
2023/10/15 09:18:18;;;;;;;3.92;1.50;;;;;;;9.77;71.63;98931.47;5028188;28;20033;-81
2023/10/15 09:20:45;;;;;;;8.10;1.67;;;;;;;9.93;71.42;98945.84;5029944;28;20044;-81
2023/10/15 09:23:11;;;;;;;5.82;2.47;;;;;;;9.66;71.26;98936.84;5025112;28;20473;-82
2023/10/15 09:25:37;;;;;;;4.72;1.85;;;;;;;9.74;71.23;98939.16;4998338;28;20083;-84
2023/10/15 09:28:03;;;;;;;4.13;2.00;;;;;;;9.53;71.52;98935.31;5032677;28;20104;-81
2023/10/15 09:30:32;;;;;;;6.00;1.80;;;;;;;9.90;71.28;98950.84;5010071;28;21781;-82
2023/10/15 09:32:57;;;;;;;2.40;1.50;;;;;;;9.92;71.51;98936.22;5027111;28;20095;-82
2023/10/15 09:35:23;;;;;;;7.75;1.50;;;;;;;9.99;71.30;98958.22;4996122;28;20033;-81
2023/10/15 09:37:49;;;;;;;2.75;1.60;;;;;;;10.14;70.40;98963.81;5024808;28;20477;-82
2023/10/15 09:40:20;;;;;;;3.05;1.92;;;;;;;10.04;70.48;98963.66;5023602;28;20083;-82
2023/10/15 09:42:49;;;;;;;2.65;1.80;;;;;;;10.20;70.55;98957.50;5023002;28;20250;-81
2023/10/15 09:45:18;;;;;;;6.93;2.95;;;;;;;10.11;70.69;98945.63;5017117;28;20016;-82
2023/10/15 09:47:52;;;;;;;3.60;1.90;;;;;;;10.26;70.53;98967.25;5023684;28;20630;-82
2023/10/15 09:50:25;;;;;;;4.50;2.17;;;;;;;10.27;69.77;98962.69;4992905;28;20470;-82
2023/10/15 09:53:01;;;;;;;3.15;1.60;;;;;;;10.22;70.34;98963.41;5011003;28;20499;-81
2023/10/15 09:55:31;;;;;;;5.75;2.10;;;;;;;9.90;69.42;98914.34;5008972;28;20033;-82
2023/10/15 09:57:58;;;;;;;3.35;2.10;;;;;;;10.20;70.11;98970.06;4993011;28;20045;-81
2023/10/15 10:03:29;;;;;;;3.72;2.20;;;;;;;10.16;70.28;98966.25;5010508;28;20044;-81
2023/10/15 10:06:22;;;;;;;3.83;2.00;;;;;;;10.28;69.37;98981.13;5008497;28;20021;-80
2023/10/15 10:09:09;;;;;;;3.05;2.35;;;;;;;10.09;69.09;98971.69;5024002;28;20017;-81
2023/10/15 10:11:59;;;;;;;5.88;2.70;;;;;;;10.14;69.37;98974.50;5026820;28;20511;-81
2023/10/15 10:14:43;;;;;;;5.93;2.28;;;;;;;10.15;69.49;98973.47;5017239;28;20030;-81
2023/10/15 10:17:11;;;;;;;5.20;2.35;;;;;;;9.93;70.28;98964.53;5018145;28;20036;-81
2023/10/15 10:19:39;;;;;;;7.15;2.20;;;;;;;10.16;69.46;98979.56;5010626;28;20073;-81
2023/10/15 10:22:19;;;;;;;5.80;2.83;;;;;;;10.18;68.53;98969.47;4993343;28;20045;-81
2023/10/15 10:24:44;;;;;;;5.82;3.45;;;;;;;10.17;69.18;98963.34;5011110;28;20041;-81
2023/10/15 10:27:14;;;;;;;6.20;2.92;;;;;;;9.97;69.55;98960.31;4988393;28;20037;-81
2023/10/15 10:29:41;;;;;;;3.63;2.67;;;;;;;10.15;68.88;98964.63;5000990;28;20026;-81
2023/10/15 10:32:10;;;;;;;5.70;2.40;;;;;;;10.14;68.72;98955.00;4988546;28;20036;-81
2023/10/15 10:34:35;;;;;;;3.50;2.50;;;;;;;10.18;68.39;98961.47;5024124;28;20034;-81
2023/10/15 10:37:00;;;;;;;3.05;2.45;;;;;;;10.24;68.88;98977.31;5011877;28;20032;-81
2023/10/15 10:39:43;;;;;;;4.68;2.33;;;;;;;10.30;68.06;98972.88;5004168;28;20033;-81
2023/10/15 10:42:21;;;;;;;4.65;2.42;;;;;;;10.20;69.24;98957.50;5012308;28;20029;-81
2023/10/15 10:44:46;;;;;;;3.88;2.15;;;;;;;10.42;68.13;98958.38;5029794;28;20483;-81
2023/10/15 10:47:33;;;;;;;3.53;2.38;;;;;;;10.45;68.10;98957.91;5003416;28;20029;-81
2023/10/15 10:50:00;;;;;;;5.75;2.20;;;;;;;10.39;67.93;98969.56;5007239;28;20053;-81
2023/10/15 10:52:36;;;;;;;4.22;2.00;;;;;;;10.22;69.19;98981.28;5008568;28;20091;-81
2023/10/15 10:55:20;;;;;;;;;;;;;;;10.16;69.42;98982.25;5024018;28;20540;-81
2023/10/15 10:57:49;;;;;;;4.68;2.20;;;;;;;9.81;70.77;98983.25;5016339;28;19913;-82
2023/10/15 11:00:15;;;;;;;3.38;2.40;;;;;;;10.09;70.64;98984.25;5010497;28;20112;-81
2023/10/15 11:02:41;;;;;;;3.28;1.52;;;;;;;9.93;70.96;98979.69;5010579;28;20033;-81
2023/10/15 11:05:11;;;;;;;6.30;2.50;;;;;;;9.35;72.27;98985.31;5012817;28;20041;-81
2023/10/15 11:07:37;;;;;;;3.83;1.95;;;;;;;9.93;71.85;98971.69;4980332;28;20064;-81
2023/10/15 11:10:06;;;;;;;3.72;2.33;;;;;;;9.70;71.85;98981.44;5023202;28;20029;-81
2023/10/15 11:12:31;;;;;;;4.60;2.05;;;;;;;10.11;71.19;98969.63;4994434;28;20057;-81
2023/10/15 11:14:57;;;;;;;2.40;2.20;;;;;;;9.96;71.86;98963.25;4993144;28;20075;-81
2023/10/15 11:17:22;;;;;;;4.65;1.95;;;;;;;10.14;71.66;98969.16;5009093;28;20041;-82
2023/10/15 11:19:48;;;;;;;2.30;1.63;;;;;;;10.08;71.40;98970.09;4991152;28;20045;-81
2023/10/15 11:22:14;;;;;;;2.63;2.25;;;;;;;10.02;71.34;98972.94;5027654;28;20124;-81
2023/10/15 11:24:39;;;;;;;3.35;1.85;;;;;;;10.04;71.60;98976.16;5024506;28;20036;-81
2023/10/15 11:27:11;;;;;;;3.00;1.88;;;;;;;10.22;70.92;98971.41;5028206;28;20040;-81
2023/10/15 11:29:37;;;;;;;8.57;2.17;;;;;;;9.99;71.98;98979.53;5029843;28;20065;-81
2023/10/15 11:32:03;;;;;;;3.03;2.20;;;;;;;10.09;71.71;98976.25;5027774;28;20065;-81
2023/10/15 11:34:31;;;;;;;5.20;2.50;;;;;;;10.01;71.43;99000.63;5009363;28;20026;-80
2023/10/15 11:36:57;;;;;;;4.88;2.60;;;;;;;10.14;71.26;99009.16;5003919;28;20045;-82
2023/10/15 11:39:37;;;;;;;3.63;2.10;;;;;;;9.92;71.67;99021.53;4992106;28;20060;-83
2023/10/15 11:42:06;;;;;;;6.40;2.33;;;;;;;9.75;73.15;99023.38;5009674;28;20033;-83
2023/10/15 11:44:32;;;;;;;3.72;2.25;;;;;;;9.85;72.98;99012.09;5009046;28;20029;-84
2023/10/15 11:47:00;;;;;;;3.55;2.28;;;;;;;9.87;72.98;99002.00;5024026;28;20040;-83
2023/10/15 11:49:27;;;;;;;2.90;1.98;;;;;;;9.93;72.55;98988.53;5025128;28;20072;-82
2023/10/15 11:51:56;;;;;;;4.55;2.10;;;;;;;9.80;72.70;98994.97;5032521;28;20061;-82
2023/10/15 11:54:27;;;;;;;4.57;1.80;;;;;;;9.87;72.93;98994.81;5028650;28;20389;-82
2023/10/15 11:56:54;;;;;;;2.65;1.90;;;;;;;9.86;73.99;99011.03;5029160;28;20122;-82
2023/10/15 11:59:21;;;;;;;4.03;2.28;;;;;;;9.59;74.37;98997.47;4997603;28;20033;-82
2023/10/15 12:01:51;;;;;;;1.85;1.67;;;;;;;9.86;73.68;99006.50;5008140;28;20501;-82
2023/10/15 12:04:16;;;;;;;1.75;1.55;;;;;;;9.74;73.95;98995.13;5005143;28;20025;-82